sensor_id;sensor_type;location;lat;lon;timestamp;pressure;altitude;pressure_sealevel;temperature
9985;BMP180;16737;50.932;6.780;2023-05-16T00:02:25;100298.00;;;16.00
9985;BMP180;16737;50.932;6.780;2023-05-16T00:04:52;100304.00;;;16.00
9985;BMP180;16737;50.932;6.780;2023-05-16T00:07:19;100297.00;;;15.90
9985;BMP180;16737;50.932;6.780;2023-05-16T00:09:48;100308.00;;;15.90
9985;BMP180;16737;50.932;6.780;2023-05-16T00:12:14;100308.00;;;15.80
9985;BMP180;16737;50.932;6.780;2023-05-16T00:14:42;100294.00;;;15.80
9985;BMP180;16737;50.932;6.780;2023-05-16T00:17:09;100291.00;;;15.70
9985;BMP180;16737;50.932;6.780;2023-05-16T00:19:37;100303.00;;;15.70
9985;BMP180;16737;50.932;6.780;2023-05-16T00:22:05;100296.00;;;15.70
9985;BMP180;16737;50.932;6.780;2023-05-16T00:24:32;100278.00;;;15.60
9985;BMP180;16737;50.932;6.780;2023-05-16T00:27:01;100297.00;;;15.60
9985;BMP180;16737;50.932;6.780;2023-05-16T00:29:29;100302.00;;;15.60
9985;BMP180;16737;50.932;6.780;2023-05-16T00:31:56;100299.00;;;15.60
9985;BMP180;16737;50.932;6.780;2023-05-16T00:34:23;100275.00;;;15.60
9985;BMP180;16737;50.932;6.780;2023-05-16T00:36:50;100316.00;;;15.60
9985;BMP180;16737;50.932;6.780;2023-05-16T00:39:17;100306.00;;;15.50
9985;BMP180;16737;50.932;6.780;2023-05-16T00:41:45;100292.00;;;15.60
9985;BMP180;16737;50.932;6.780;2023-05-16T00:44:13;100310.00;;;15.60
9985;BMP180;16737;50.932;6.780;2023-05-16T00:46:40;100282.00;;;15.60
9985;BMP180;16737;50.932;6.780;2023-05-16T00:49:08;100305.00;;;15.50
9985;BMP180;16737;50.932;6.780;2023-05-16T00:51:37;100306.00;;;15.50
9985;BMP180;16737;50.932;6.780;2023-05-16T00:54:05;100303.00;;;15.50
9985;BMP180;16737;50.932;6.780;2023-05-16T00:56:32;100317.00;;;15.50
9985;BMP180;16737;50.932;6.780;2023-05-16T00:59:00;100303.00;;;15.50
9985;BMP180;16737;50.932;6.780;2023-05-16T01:01:30;100301.00;;;15.40
9985;BMP180;16737;50.932;6.780;2023-05-16T01:03:59;100300.00;;;15.40
9985;BMP180;16737;50.932;6.780;2023-05-16T01:06:26;100314.00;;;15.40
9985;BMP180;16737;50.932;6.780;2023-05-16T01:08:53;100312.00;;;15.40
9985;BMP180;16737;50.932;6.780;2023-05-16T01:11:31;100322.00;;;15.40
9985;BMP180;16737;50.932;6.780;2023-05-16T01:14:08;100314.00;;;15.30
9985;BMP180;16737;50.932;6.780;2023-05-16T01:16:45;100319.00;;;15.30
9985;BMP180;16737;50.932;6.780;2023-05-16T01:19:42;100313.00;;;15.20
9985;BMP180;16737;50.932;6.780;2023-05-16T01:22:21;100313.00;;;15.20
9985;BMP180;16737;50.932;6.780;2023-05-16T01:25:05;100307.00;;;15.10
9985;BMP180;16737;50.932;6.780;2023-05-16T01:27:37;100319.00;;;15.10
9985;BMP180;16737;50.932;6.780;2023-05-16T01:30:15;100340.00;;;15.00
9985;BMP180;16737;50.932;6.780;2023-05-16T01:32:42;100336.00;;;15.00
9985;BMP180;16737;50.932;6.780;2023-05-16T01:35:15;100326.00;;;14.90
9985;BMP180;16737;50.932;6.780;2023-05-16T01:37:49;100322.00;;;14.90
9985;BMP180;16737;50.932;6.780;2023-05-16T01:40:28;100337.00;;;14.80
9985;BMP180;16737;50.932;6.780;2023-05-16T01:43:04;100337.00;;;14.80
9985;BMP180;16737;50.932;6.780;2023-05-16T01:45:34;100338.00;;;14.70
9985;BMP180;16737;50.932;6.780;2023-05-16T01:48:07;100341.00;;;14.70
9985;BMP180;16737;50.932;6.780;2023-05-16T01:50:41;100346.00;;;14.70
9985;BMP180;16737;50.932;6.780;2023-05-16T01:53:15;100338.00;;;14.60
9985;BMP180;16737;50.932;6.780;2023-05-16T01:55:46;100350.00;;;14.60
9985;BMP180;16737;50.932;6.780;2023-05-16T01:58:19;100342.00;;;14.60
9985;BMP180;16737;50.932;6.780;2023-05-16T02:00:46;100348.00;;;14.60
9985;BMP180;16737;50.932;6.780;2023-05-16T02:03:13;100356.00;;;14.60
9985;BMP180;16737;50.932;6.780;2023-05-16T02:05:40;100342.00;;;14.60
9985;BMP180;16737;50.932;6.780;2023-05-16T02:08:09;100348.00;;;14.60
9985;BMP180;16737;50.932;6.780;2023-05-16T02:10:36;100368.00;;;14.50
9985;BMP180;16737;50.932;6.780;2023-05-16T02:13:04;100355.00;;;14.50
9985;BMP180;16737;50.932;6.780;2023-05-16T02:15:32;100369.00;;;14.50
9985;BMP180;16737;50.932;6.780;2023-05-16T02:17:59;100369.00;;;14.40
9985;BMP180;16737;50.932;6.780;2023-05-16T02:20:26;100356.00;;;14.40
9985;BMP180;16737;50.932;6.780;2023-05-16T02:22:53;100379.00;;;14.40
9985;BMP180;16737;50.932;6.780;2023-05-16T02:25:20;100377.00;;;14.30
9985;BMP180;16737;50.932;6.780;2023-05-16T02:27:47;100381.00;;;14.30
9985;BMP180;16737;50.932;6.780;2023-05-16T02:30:15;100380.00;;;14.30
9985;BMP180;16737;50.932;6.780;2023-05-16T02:32:43;100371.00;;;14.20
9985;BMP180;16737;50.932;6.780;2023-05-16T02:35:10;100375.00;;;14.20
9985;BMP180;16737;50.932;6.780;2023-05-16T02:37:38;100389.00;;;14.20
9985;BMP180;16737;50.932;6.780;2023-05-16T02:40:06;100383.00;;;14.20
9985;BMP180;16737;50.932;6.780;2023-05-16T02:42:34;100399.00;;;14.20
9985;BMP180;16737;50.932;6.780;2023-05-16T02:45:01;100396.00;;;14.10
9985;BMP180;16737;50.932;6.780;2023-05-16T02:47:28;100401.00;;;14.10
9985;BMP180;16737;50.932;6.780;2023-05-16T02:49:56;100397.00;;;14.10
9985;BMP180;16737;50.932;6.780;2023-05-16T02:52:23;100411.00;;;14.10
9985;BMP180;16737;50.932;6.780;2023-05-16T02:54:50;100400.00;;;14.10
9985;BMP180;16737;50.932;6.780;2023-05-16T02:57:17;100418.00;;;14.10
9985;BMP180;16737;50.932;6.780;2023-05-16T02:59:44;100417.00;;;14.00
9985;BMP180;16737;50.932;6.780;2023-05-16T03:02:11;100414.00;;;14.00
9985;BMP180;16737;50.932;6.780;2023-05-16T03:04:38;100409.00;;;14.00
9985;BMP180;16737;50.932;6.780;2023-05-16T03:07:06;100411.00;;;13.90
9985;BMP180;16737;50.932;6.780;2023-05-16T03:09:33;100409.00;;;13.90
9985;BMP180;16737;50.932;6.780;2023-05-16T03:12:00;100415.00;;;13.90
9985;BMP180;16737;50.932;6.780;2023-05-16T03:14:27;100404.00;;;13.90
9985;BMP180;16737;50.932;6.780;2023-05-16T03:16:54;100421.00;;;13.80
9985;BMP180;16737;50.932;6.780;2023-05-16T03:19:21;100423.00;;;13.80
9985;BMP180;16737;50.932;6.780;2023-05-16T03:21:48;100428.00;;;13.80
9985;BMP180;16737;50.932;6.780;2023-05-16T03:24:16;100424.00;;;13.80
9985;BMP180;16737;50.932;6.780;2023-05-16T03:26:43;100428.00;;;13.80
9985;BMP180;16737;50.932;6.780;2023-05-16T03:29:10;100429.00;;;13.70
9985;BMP180;16737;50.932;6.780;2023-05-16T03:31:37;100429.00;;;13.70
9985;BMP180;16737;50.932;6.780;2023-05-16T03:34:04;100432.00;;;13.70
9985;BMP180;16737;50.932;6.780;2023-05-16T03:36:31;100437.00;;;13.70
9985;BMP180;16737;50.932;6.780;2023-05-16T03:38:58;100437.00;;;13.70
9985;BMP180;16737;50.932;6.780;2023-05-16T03:41:26;100445.00;;;13.70
9985;BMP180;16737;50.932;6.780;2023-05-16T03:43:53;100432.00;;;13.70
9985;BMP180;16737;50.932;6.780;2023-05-16T03:46:20;100443.00;;;13.70
9985;BMP180;16737;50.932;6.780;2023-05-16T03:48:47;100444.00;;;13.70
9985;BMP180;16737;50.932;6.780;2023-05-16T03:51:13;100428.00;;;13.70
9985;BMP180;16737;50.932;6.780;2023-05-16T03:53:40;100452.00;;;13.70
9985;BMP180;16737;50.932;6.780;2023-05-16T03:56:07;100463.00;;;13.70
9985;BMP180;16737;50.932;6.780;2023-05-16T03:58:36;100460.00;;;13.70
9985;BMP180;16737;50.932;6.780;2023-05-16T04:01:03;100466.00;;;13.70
9985;BMP180;16737;50.932;6.780;2023-05-16T04:03:30;100473.00;;;13.70
9985;BMP180;16737;50.932;6.780;2023-05-16T04:05:58;100473.00;;;13.70
9985;BMP180;16737;50.932;6.780;2023-05-16T04:08:25;100473.00;;;13.70
9985;BMP180;16737;50.932;6.780;2023-05-16T04:10:54;100471.00;;;13.70
9985;BMP180;16737;50.932;6.780;2023-05-16T04:13:28;100478.00;;;13.70
9985;BMP180;16737;50.932;6.780;2023-05-16T04:15:59;100478.00;;;13.70
9985;BMP180;16737;50.932;6.780;2023-05-16T04:18:26;100488.00;;;13.70
9985;BMP180;16737;50.932;6.780;2023-05-16T04:20:53;100484.00;;;13.70
9985;BMP180;16737;50.932;6.780;2023-05-16T04:23:20;100485.00;;;13.60
9985;BMP180;16737;50.932;6.780;2023-05-16T04:25:47;100486.00;;;13.60
9985;BMP180;16737;50.932;6.780;2023-05-16T04:28:15;100487.00;;;13.60
9985;BMP180;16737;50.932;6.780;2023-05-16T04:30:42;100498.00;;;13.60
9985;BMP180;16737;50.932;6.780;2023-05-16T04:33:11;100508.00;;;13.60
9985;BMP180;16737;50.932;6.780;2023-05-16T04:35:38;100506.00;;;13.50
9985;BMP180;16737;50.932;6.780;2023-05-16T04:38:05;100515.00;;;13.50
9985;BMP180;16737;50.932;6.780;2023-05-16T04:40:32;100512.00;;;13.50
9985;BMP180;16737;50.932;6.780;2023-05-16T04:43:00;100522.00;;;13.40
9985;BMP180;16737;50.932;6.780;2023-05-16T04:45:27;100517.00;;;13.50
9985;BMP180;16737;50.932;6.780;2023-05-16T04:47:54;100520.00;;;13.50
9985;BMP180;16737;50.932;6.780;2023-05-16T04:50:28;100518.00;;;13.40
9985;BMP180;16737;50.932;6.780;2023-05-16T04:52:58;100526.00;;;13.40
9985;BMP180;16737;50.932;6.780;2023-05-16T04:55:25;100523.00;;;13.40
9985;BMP180;16737;50.932;6.780;2023-05-16T04:57:52;100529.00;;;13.40
9985;BMP180;16737;50.932;6.780;2023-05-16T05:00:20;100540.00;;;13.30
9985;BMP180;16737;50.932;6.780;2023-05-16T05:02:47;100544.00;;;13.30
9985;BMP180;16737;50.932;6.780;2023-05-16T05:05:16;100489.00;;;13.30
9985;BMP180;16737;50.932;6.780;2023-05-16T05:10:21;100570.00;;;13.20
9985;BMP180;16737;50.932;6.780;2023-05-16T05:12:48;100565.00;;;13.20
9985;BMP180;16737;50.932;6.780;2023-05-16T05:15:15;100566.00;;;13.20
9985;BMP180;16737;50.932;6.780;2023-05-16T05:17:44;100563.00;;;13.20
9985;BMP180;16737;50.932;6.780;2023-05-16T05:20:11;100578.00;;;13.10
9985;BMP180;16737;50.932;6.780;2023-05-16T05:22:38;100575.00;;;13.10
9985;BMP180;16737;50.932;6.780;2023-05-16T05:25:06;100579.00;;;13.10
9985;BMP180;16737;50.932;6.780;2023-05-16T05:27:35;100569.00;;;13.10
9985;BMP180;16737;50.932;6.780;2023-05-16T05:30:03;100573.00;;;13.10
9985;BMP180;16737;50.932;6.780;2023-05-16T05:32:30;100576.00;;;13.10
9985;BMP180;16737;50.932;6.780;2023-05-16T05:34:57;100575.00;;;13.20
9985;BMP180;16737;50.932;6.780;2023-05-16T05:37:25;100571.00;;;13.20
9985;BMP180;16737;50.932;6.780;2023-05-16T05:39:52;100588.00;;;13.20
9985;BMP180;16737;50.932;6.780;2023-05-16T05:42:19;100589.00;;;13.20
9985;BMP180;16737;50.932;6.780;2023-05-16T05:44:47;100569.00;;;13.20
9985;BMP180;16737;50.932;6.780;2023-05-16T05:47:15;100458.00;;;13.20
9985;BMP180;16737;50.932;6.780;2023-05-16T05:49:42;100602.00;;;13.20
9985;BMP180;16737;50.932;6.780;2023-05-16T05:52:09;100595.00;;;13.20
9985;BMP180;16737;50.932;6.780;2023-05-16T05:54:36;100599.00;;;13.20
9985;BMP180;16737;50.932;6.780;2023-05-16T05:57:03;100613.00;;;13.20
9985;BMP180;16737;50.932;6.780;2023-05-16T05:59:30;100608.00;;;13.20
9985;BMP180;16737;50.932;6.780;2023-05-16T06:01:59;100615.00;;;13.30
9985;BMP180;16737;50.932;6.780;2023-05-16T06:04:26;100615.00;;;13.30
9985;BMP180;16737;50.932;6.780;2023-05-16T06:06:53;100586.00;;;13.30
9985;BMP180;16737;50.932;6.780;2023-05-16T06:09:20;100594.00;;;13.30
9985;BMP180;16737;50.932;6.780;2023-05-16T06:11:48;100623.00;;;13.30
9985;BMP180;16737;50.932;6.780;2023-05-16T06:14:15;100621.00;;;13.40
9985;BMP180;16737;50.932;6.780;2023-05-16T06:16:42;100620.00;;;13.40
9985;BMP180;16737;50.932;6.780;2023-05-16T06:19:11;100646.00;;;13.40
9985;BMP180;16737;50.932;6.780;2023-05-16T06:21:40;100626.00;;;13.40
9985;BMP180;16737;50.932;6.780;2023-05-16T06:24:08;100642.00;;;13.40
9985;BMP180;16737;50.932;6.780;2023-05-16T06:26:35;100610.00;;;13.50
9985;BMP180;16737;50.932;6.780;2023-05-16T06:29:02;100634.00;;;13.50
9985;BMP180;16737;50.932;6.780;2023-05-16T06:31:30;100637.00;;;13.40
9985;BMP180;16737;50.932;6.780;2023-05-16T06:33:57;100660.00;;;13.50
9985;BMP180;16737;50.932;6.780;2023-05-16T06:36:25;100655.00;;;13.60
9985;BMP180;16737;50.932;6.780;2023-05-16T06:38:52;100653.00;;;13.60
9985;BMP180;16737;50.932;6.780;2023-05-16T06:41:19;100647.00;;;13.60
9985;BMP180;16737;50.932;6.780;2023-05-16T06:43:46;100656.00;;;13.60
9985;BMP180;16737;50.932;6.780;2023-05-16T06:46:13;100651.00;;;13.60
9985;BMP180;16737;50.932;6.780;2023-05-16T06:48:39;100607.00;;;13.70
9985;BMP180;16737;50.932;6.780;2023-05-16T06:51:06;100508.00;;;13.70
9985;BMP180;16737;50.932;6.780;2023-05-16T06:53:35;100662.00;;;13.70
9985;BMP180;16737;50.932;6.780;2023-05-16T06:56:03;100655.00;;;13.70
9985;BMP180;16737;50.932;6.780;2023-05-16T06:58:30;100648.00;;;13.80
9985;BMP180;16737;50.932;6.780;2023-05-16T07:00:57;100652.00;;;13.80
9985;BMP180;16737;50.932;6.780;2023-05-16T07:03:24;100651.00;;;13.80
9985;BMP180;16737;50.932;6.780;2023-05-16T07:05:51;100658.00;;;13.90
9985;BMP180;16737;50.932;6.780;2023-05-16T07:08:18;100661.00;;;13.90
9985;BMP180;16737;50.932;6.780;2023-05-16T07:10:46;100658.00;;;13.90
9985;BMP180;16737;50.932;6.780;2023-05-16T07:13:13;100657.00;;;14.00
9985;BMP180;16737;50.932;6.780;2023-05-16T07:15:40;100662.00;;;14.00
9985;BMP180;16737;50.932;6.780;2023-05-16T07:18:07;100599.00;;;14.10
9985;BMP180;16737;50.932;6.780;2023-05-16T07:20:34;100663.00;;;14.10
9985;BMP180;16737;50.932;6.780;2023-05-16T07:23:01;100658.00;;;14.20
9985;BMP180;16737;50.932;6.780;2023-05-16T07:25:28;100670.00;;;14.20
9985;BMP180;16737;50.932;6.780;2023-05-16T07:27:56;100665.00;;;14.30
9985;BMP180;16737;50.932;6.780;2023-05-16T07:30:23;100666.00;;;14.30
9985;BMP180;16737;50.932;6.780;2023-05-16T07:32:50;100670.00;;;14.40
9985;BMP180;16737;50.932;6.780;2023-05-16T07:35:17;100673.00;;;14.40
9985;BMP180;16737;50.932;6.780;2023-05-16T07:37:44;100658.00;;;14.30
9985;BMP180;16737;50.932;6.780;2023-05-16T07:40:12;100685.00;;;14.50
9985;BMP180;16737;50.932;6.780;2023-05-16T07:42:39;100685.00;;;14.60
9985;BMP180;16737;50.932;6.780;2023-05-16T07:45:13;100650.00;;;14.60
9985;BMP180;16737;50.932;6.780;2023-05-16T07:47:40;100685.00;;;14.60
9985;BMP180;16737;50.932;6.780;2023-05-16T07:50:09;100690.00;;;14.70
9985;BMP180;16737;50.932;6.780;2023-05-16T07:52:36;100692.00;;;14.70
9985;BMP180;16737;50.932;6.780;2023-05-16T07:55:04;100686.00;;;14.70
9985;BMP180;16737;50.932;6.780;2023-05-16T07:57:31;100692.00;;;14.60
9985;BMP180;16737;50.932;6.780;2023-05-16T07:59:58;100693.00;;;14.70
9985;BMP180;16737;50.932;6.780;2023-05-16T08:02:30;100649.00;;;14.70
9985;BMP180;16737;50.932;6.780;2023-05-16T08:04:57;100686.00;;;14.70
9985;BMP180;16737;50.932;6.780;2023-05-16T08:07:24;100687.00;;;14.80
9985;BMP180;16737;50.932;6.780;2023-05-16T08:09:51;100685.00;;;14.90
9985;BMP180;16737;50.932;6.780;2023-05-16T08:12:19;100683.00;;;14.90
9985;BMP180;16737;50.932;6.780;2023-05-16T08:14:46;100686.00;;;14.90
9985;BMP180;16737;50.932;6.780;2023-05-16T08:17:13;100698.00;;;15.00
9985;BMP180;16737;50.932;6.780;2023-05-16T08:19:41;100691.00;;;15.00
9985;BMP180;16737;50.932;6.780;2023-05-16T08:22:08;100685.00;;;15.10
9985;BMP180;16737;50.932;6.780;2023-05-16T08:24:35;100698.00;;;15.10
9985;BMP180;16737;50.932;6.780;2023-05-16T08:27:02;100698.00;;;15.10
9985;BMP180;16737;50.932;6.780;2023-05-16T08:29:30;100702.00;;;15.20
9985;BMP180;16737;50.932;6.780;2023-05-16T08:31:58;100683.00;;;15.20
9985;BMP180;16737;50.932;6.780;2023-05-16T08:34:24;100703.00;;;15.30
9985;BMP180;16737;50.932;6.780;2023-05-16T08:36:53;100695.00;;;15.30
9985;BMP180;16737;50.932;6.780;2023-05-16T08:39:20;100706.00;;;15.40
9985;BMP180;16737;50.932;6.780;2023-05-16T08:41:48;100691.00;;;15.50
9985;BMP180;16737;50.932;6.780;2023-05-16T08:44:15;100698.00;;;15.50
9985;BMP180;16737;50.932;6.780;2023-05-16T08:46:50;100694.00;;;15.60
9985;BMP180;16737;50.932;6.780;2023-05-16T08:49:17;100683.00;;;15.70
9985;BMP180;16737;50.932;6.780;2023-05-16T08:51:46;100693.00;;;15.70
9985;BMP180;16737;50.932;6.780;2023-05-16T08:54:15;100712.00;;;15.80
9985;BMP180;16737;50.932;6.780;2023-05-16T08:56:44;100705.00;;;15.90
9985;BMP180;16737;50.932;6.780;2023-05-16T08:59:12;100703.00;;;15.90
9985;BMP180;16737;50.932;6.780;2023-05-16T09:01:40;100702.00;;;16.00
9985;BMP180;16737;50.932;6.780;2023-05-16T09:04:08;100698.00;;;16.00
9985;BMP180;16737;50.932;6.780;2023-05-16T09:06:46;100694.00;;;16.10
9985;BMP180;16737;50.932;6.780;2023-05-16T09:09:14;100685.00;;;16.20
9985;BMP180;16737;50.932;6.780;2023-05-16T09:11:41;100697.00;;;16.30
9985;BMP180;16737;50.932;6.780;2023-05-16T09:14:08;100688.00;;;16.40
9985;BMP180;16737;50.932;6.780;2023-05-16T09:16:35;100697.00;;;16.40
9985;BMP180;16737;50.932;6.780;2023-05-16T09:19:02;100688.00;;;16.60
9985;BMP180;16737;50.932;6.780;2023-05-16T09:21:31;100702.00;;;16.70
9985;BMP180;16737;50.932;6.780;2023-05-16T09:24:02;100708.00;;;16.80
9985;BMP180;16737;50.932;6.780;2023-05-16T09:26:32;100698.00;;;16.90
9985;BMP180;16737;50.932;6.780;2023-05-16T09:28:59;100696.00;;;16.90
9985;BMP180;16737;50.932;6.780;2023-05-16T09:31:28;100700.00;;;17.00
9985;BMP180;16737;50.932;6.780;2023-05-16T09:34:01;100664.00;;;17.00
9985;BMP180;16737;50.932;6.780;2023-05-16T09:36:30;100684.00;;;17.00
9985;BMP180;16737;50.932;6.780;2023-05-16T09:38:57;100713.00;;;17.00
9985;BMP180;16737;50.932;6.780;2023-05-16T09:41:24;100698.00;;;17.00
9985;BMP180;16737;50.932;6.780;2023-05-16T09:43:52;100704.00;;;17.00
9985;BMP180;16737;50.932;6.780;2023-05-16T09:46:25;100706.00;;;17.00
9985;BMP180;16737;50.932;6.780;2023-05-16T09:48:54;100699.00;;;17.10
9985;BMP180;16737;50.932;6.780;2023-05-16T09:51:22;100698.00;;;17.20
9985;BMP180;16737;50.932;6.780;2023-05-16T09:53:49;100683.00;;;17.30
9985;BMP180;16737;50.932;6.780;2023-05-16T09:56:16;100659.00;;;17.40
9985;BMP180;16737;50.932;6.780;2023-05-16T09:58:44;100720.00;;;17.40
9985;BMP180;16737;50.932;6.780;2023-05-16T10:01:13;100707.00;;;17.50
9985;BMP180;16737;50.932;6.780;2023-05-16T10:03:42;100704.00;;;17.60
9985;BMP180;16737;50.932;6.780;2023-05-16T10:06:11;100701.00;;;17.70
9985;BMP180;16737;50.932;6.780;2023-05-16T10:08:42;100704.00;;;17.70
9985;BMP180;16737;50.932;6.780;2023-05-16T10:11:10;100696.00;;;17.80
9985;BMP180;16737;50.932;6.780;2023-05-16T10:13:38;100705.00;;;17.80
9985;BMP180;16737;50.932;6.780;2023-05-16T10:16:08;100698.00;;;17.70
9985;BMP180;16737;50.932;6.780;2023-05-16T10:18:39;100703.00;;;18.00
9985;BMP180;16737;50.932;6.780;2023-05-16T10:21:09;100698.00;;;18.00
9985;BMP180;16737;50.932;6.780;2023-05-16T10:23:41;100697.00;;;18.00
9985;BMP180;16737;50.932;6.780;2023-05-16T10:26:11;100697.00;;;18.10
9985;BMP180;16737;50.932;6.780;2023-05-16T10:28:40;100696.00;;;18.20
9985;BMP180;16737;50.932;6.780;2023-05-16T10:31:09;100704.00;;;18.20
9985;BMP180;16737;50.932;6.780;2023-05-16T10:33:38;100698.00;;;18.30
9985;BMP180;16737;50.932;6.780;2023-05-16T10:36:06;100705.00;;;18.30
9985;BMP180;16737;50.932;6.780;2023-05-16T10:38:35;100536.00;;;18.30
9985;BMP180;16737;50.932;6.780;2023-05-16T10:41:02;100702.00;;;18.30
9985;BMP180;16737;50.932;6.780;2023-05-16T10:43:30;100707.00;;;18.40
9985;BMP180;16737;50.932;6.780;2023-05-16T10:46:03;100705.00;;;18.40
9985;BMP180;16737;50.932;6.780;2023-05-16T10:48:32;100706.00;;;18.40
9985;BMP180;16737;50.932;6.780;2023-05-16T10:51:02;100701.00;;;18.50
9985;BMP180;16737;50.932;6.780;2023-05-16T10:53:32;100708.00;;;18.50
9985;BMP180;16737;50.932;6.780;2023-05-16T10:56:10;100681.00;;;18.50
9985;BMP180;16737;50.932;6.780;2023-05-16T10:58:42;100693.00;;;18.30
9985;BMP180;16737;50.932;6.780;2023-05-16T11:01:23;100696.00;;;18.60
9985;BMP180;16737;50.932;6.780;2023-05-16T11:04:09;100697.00;;;18.70
9985;BMP180;16737;50.932;6.780;2023-05-16T11:06:50;100689.00;;;18.70
9985;BMP180;16737;50.932;6.780;2023-05-16T11:09:24;100696.00;;;18.80
9985;BMP180;16737;50.932;6.780;2023-05-16T11:12:01;100656.00;;;18.50
9985;BMP180;16737;50.932;6.780;2023-05-16T11:14:36;100690.00;;;18.80
9985;BMP180;16737;50.932;6.780;2023-05-16T11:17:07;100703.00;;;18.90
9985;BMP180;16737;50.932;6.780;2023-05-16T11:19:40;100697.00;;;18.90
9985;BMP180;16737;50.932;6.780;2023-05-16T11:22:24;100719.00;;;18.90
9985;BMP180;16737;50.932;6.780;2023-05-16T11:24:54;100709.00;;;19.00
9985;BMP180;16737;50.932;6.780;2023-05-16T11:27:28;100718.00;;;18.80
9985;BMP180;16737;50.932;6.780;2023-05-16T11:30:03;100711.00;;;18.90
9985;BMP180;16737;50.932;6.780;2023-05-16T11:32:38;100724.00;;;18.90
9985;BMP180;16737;50.932;6.780;2023-05-16T11:35:08;100721.00;;;18.90
9985;BMP180;16737;50.932;6.780;2023-05-16T11:37:36;100644.00;;;18.90
9985;BMP180;16737;50.932;6.780;2023-05-16T11:40:06;100673.00;;;19.00
9985;BMP180;16737;50.932;6.780;2023-05-16T11:42:38;100719.00;;;18.80
9985;BMP180;16737;50.932;6.780;2023-05-16T11:45:07;100701.00;;;18.90
9985;BMP180;16737;50.932;6.780;2023-05-16T11:47:36;100720.00;;;18.90
9985;BMP180;16737;50.932;6.780;2023-05-16T11:50:05;100726.00;;;18.80
9985;BMP180;16737;50.932;6.780;2023-05-16T11:52:36;100706.00;;;18.90
9985;BMP180;16737;50.932;6.780;2023-05-16T11:55:04;100725.00;;;18.90
9985;BMP180;16737;50.932;6.780;2023-05-16T11:57:32;100730.00;;;18.80
9985;BMP180;16737;50.932;6.780;2023-05-16T12:00:02;100722.00;;;18.80
9985;BMP180;16737;50.932;6.780;2023-05-16T12:02:32;100723.00;;;18.60
9985;BMP180;16737;50.932;6.780;2023-05-16T12:05:06;100712.00;;;18.90
9985;BMP180;16737;50.932;6.780;2023-05-16T12:07:35;100721.00;;;19.00
9985;BMP180;16737;50.932;6.780;2023-05-16T12:10:05;100721.00;;;19.00
9985;BMP180;16737;50.932;6.780;2023-05-16T12:12:32;100723.00;;;19.10
9985;BMP180;16737;50.932;6.780;2023-05-16T12:14:59;100716.00;;;19.30
9985;BMP180;16737;50.932;6.780;2023-05-16T12:17:27;100719.00;;;19.30
9985;BMP180;16737;50.932;6.780;2023-05-16T12:19:57;100731.00;;;19.40
9985;BMP180;16737;50.932;6.780;2023-05-16T12:22:24;100720.00;;;19.50
9985;BMP180;16737;50.932;6.780;2023-05-16T12:24:52;100726.00;;;19.50
9985;BMP180;16737;50.932;6.780;2023-05-16T12:27:21;100718.00;;;19.60
9985;BMP180;16737;50.932;6.780;2023-05-16T12:29:49;100721.00;;;19.60
9985;BMP180;16737;50.932;6.780;2023-05-16T12:32:18;100722.00;;;19.60
9985;BMP180;16737;50.932;6.780;2023-05-16T12:34:49;100742.00;;;19.60
9985;BMP180;16737;50.932;6.780;2023-05-16T12:37:16;100720.00;;;19.60
9985;BMP180;16737;50.932;6.780;2023-05-16T12:39:44;100729.00;;;19.60
9985;BMP180;16737;50.932;6.780;2023-05-16T12:42:14;100737.00;;;19.60
9985;BMP180;16737;50.932;6.780;2023-05-16T12:44:44;100732.00;;;19.50
9985;BMP180;16737;50.932;6.780;2023-05-16T12:47:11;100747.00;;;19.40
9985;BMP180;16737;50.932;6.780;2023-05-16T12:49:44;100735.00;;;19.30
9985;BMP180;16737;50.932;6.780;2023-05-16T12:52:17;100729.00;;;19.30
9985;BMP180;16737;50.932;6.780;2023-05-16T12:54:45;100732.00;;;19.30
9985;BMP180;16737;50.932;6.780;2023-05-16T12:57:14;100734.00;;;19.40
9985;BMP180;16737;50.932;6.780;2023-05-16T12:59:41;100742.00;;;19.50
9985;BMP180;16737;50.932;6.780;2023-05-16T13:02:08;100736.00;;;19.60
9985;BMP180;16737;50.932;6.780;2023-05-16T13:04:34;100732.00;;;19.60
9985;BMP180;16737;50.932;6.780;2023-05-16T13:07:01;100731.00;;;19.70
9985;BMP180;16737;50.932;6.780;2023-05-16T13:09:30;100726.00;;;19.60
9985;BMP180;16737;50.932;6.780;2023-05-16T13:11:57;100740.00;;;19.80
9985;BMP180;16737;50.932;6.780;2023-05-16T13:14:25;100735.00;;;19.90
9985;BMP180;16737;50.932;6.780;2023-05-16T13:16:52;100732.00;;;19.90
9985;BMP180;16737;50.932;6.780;2023-05-16T13:19:19;100734.00;;;20.00
9985;BMP180;16737;50.932;6.780;2023-05-16T13:21:47;100737.00;;;20.00
9985;BMP180;16737;50.932;6.780;2023-05-16T13:24:14;100730.00;;;20.10
9985;BMP180;16737;50.932;6.780;2023-05-16T13:26:41;100733.00;;;20.10
9985;BMP180;16737;50.932;6.780;2023-05-16T13:29:08;100741.00;;;20.20
9985;BMP180;16737;50.932;6.780;2023-05-16T13:31:40;100730.00;;;20.30
9985;BMP180;16737;50.932;6.780;2023-05-16T13:34:07;100733.00;;;20.40
9985;BMP180;16737;50.932;6.780;2023-05-16T13:36:34;100718.00;;;20.50
9985;BMP180;16737;50.932;6.780;2023-05-16T13:39:01;100738.00;;;20.60
9985;BMP180;16737;50.932;6.780;2023-05-16T13:41:28;100734.00;;;20.70
9985;BMP180;16737;50.932;6.780;2023-05-16T13:43:55;100734.00;;;20.80
9985;BMP180;16737;50.932;6.780;2023-05-16T13:46:22;100742.00;;;20.80
9985;BMP180;16737;50.932;6.780;2023-05-16T13:48:50;100737.00;;;20.80
9985;BMP180;16737;50.932;6.780;2023-05-16T13:51:17;100742.00;;;20.90
9985;BMP180;16737;50.932;6.780;2023-05-16T13:53:44;100742.00;;;20.90
9985;BMP180;16737;50.932;6.780;2023-05-16T13:56:11;100750.00;;;21.00
9985;BMP180;16737;50.932;6.780;2023-05-16T13:58:38;100754.00;;;21.00
9985;BMP180;16737;50.932;6.780;2023-05-16T14:01:05;100750.00;;;21.00
9985;BMP180;16737;50.932;6.780;2023-05-16T14:03:32;100747.00;;;21.00
9985;BMP180;16737;50.932;6.780;2023-05-16T14:06:02;100753.00;;;21.00
9985;BMP180;16737;50.932;6.780;2023-05-16T14:08:29;100744.00;;;21.00
9985;BMP180;16737;50.932;6.780;2023-05-16T14:10:56;100736.00;;;21.00
9985;BMP180;16737;50.932;6.780;2023-05-16T14:13:23;100733.00;;;20.90
9985;BMP180;16737;50.932;6.780;2023-05-16T14:15:50;100743.00;;;21.10
9985;BMP180;16737;50.932;6.780;2023-05-16T14:18:17;100740.00;;;21.00
9985;BMP180;16737;50.932;6.780;2023-05-16T14:20:44;100735.00;;;21.30